createdAt,value
2022-10-26T00:01:16.634Z,22.33
2022-10-26T00:03:46.486Z,21.75
2022-10-26T00:06:22.480Z,23.13
2022-10-26T00:08:49.850Z,24.02
2022-10-26T00:11:18.886Z,21.83
2022-10-26T00:13:47.999Z,23.08
2022-10-26T00:16:27.911Z,25.27
2022-10-26T00:18:57.489Z,22.67
2022-10-26T00:21:24.526Z,23.05
2022-10-26T00:23:51.167Z,22.52
2022-10-26T00:26:18.451Z,21.92
2022-10-26T00:28:45.326Z,23.35
2022-10-26T00:31:15.913Z,24.45
2022-10-26T00:33:42.897Z,26.02
2022-10-26T00:36:10.749Z,25.65
2022-10-26T00:38:38.419Z,23.60
2022-10-26T00:41:05.932Z,25.70
2022-10-26T00:43:39.570Z,24.73
2022-10-26T00:46:15.328Z,25.55
2022-10-26T00:48:51.141Z,26.30
2022-10-26T00:51:27.423Z,26.38
2022-10-26T00:53:56.049Z,26.13
2022-10-26T00:56:24.079Z,26.38
2022-10-26T00:58:54.270Z,23.70
2022-10-26T01:01:21.136Z,25.48
2022-10-26T01:03:51.495Z,26.25
2022-10-26T01:06:21.743Z,24.80
2022-10-26T01:08:49.949Z,26.02
2022-10-26T01:11:16.819Z,25.65
2022-10-26T01:13:48.276Z,25.40
2022-10-26T01:16:54.859Z,24.85
2022-10-26T01:20:09.916Z,25.33
2022-10-26T01:22:59.417Z,26.55
2022-10-26T01:26:24.922Z,24.63
2022-10-26T01:29:42.825Z,25.75
2022-10-26T01:32:25.417Z,24.98
2022-10-26T01:35:49.131Z,24.90
2022-10-26T01:38:40.685Z,24.80
2022-10-26T01:41:44.915Z,26.75
2022-10-26T01:44:42.883Z,24.15
2022-10-26T01:47:15.771Z,23.55
2022-10-26T01:49:58.214Z,23.95
2022-10-26T01:52:26.174Z,25.05
2022-10-26T01:55:28.156Z,24.08
2022-10-26T01:58:26.857Z,25.90
2022-10-26T02:01:16.675Z,23.08
2022-10-26T02:04:26.337Z,28.23
2022-10-26T02:07:16.034Z,23.92
2022-10-26T02:10:28.641Z,24.73
2022-10-26T02:13:47.477Z,26.10
2022-10-26T02:16:26.511Z,24.25
2022-10-26T02:19:36.394Z,26.02
2022-10-26T02:22:31.664Z,24.52
2022-10-26T02:25:07.909Z,26.83
2022-10-26T02:27:47.913Z,27.50
2022-10-26T02:30:15.526Z,26.55
2022-10-26T02:32:55.023Z,29.10
2022-10-26T02:35:33.684Z,27.08
2022-10-26T02:38:09.424Z,27.08
2022-10-26T02:40:38.969Z,26.52
2022-10-26T02:43:21.906Z,29.63
2022-10-26T02:45:59.488Z,26.17
2022-10-26T02:48:26.311Z,26.55
2022-10-26T02:51:35.592Z,27.38
2022-10-26T02:54:21.851Z,25.83
2022-10-26T02:56:59.831Z,34.20
2022-10-26T02:59:36.550Z,29.10
2022-10-26T03:02:05.107Z,25.80
2022-10-26T03:04:35.137Z,24.35
2022-10-26T03:07:04.711Z,25.30
2022-10-26T03:09:31.585Z,30.00
2022-10-26T03:11:58.236Z,26.92
2022-10-26T03:14:25.171Z,28.00
2022-10-26T03:16:52.483Z,27.63
2022-10-26T03:19:19.152Z,25.23
2022-10-26T03:21:45.803Z,28.80
2022-10-26T03:24:12.486Z,28.67
2022-10-26T03:26:39.087Z,27.85
2022-10-26T03:29:06.434Z,33.88
2022-10-26T03:31:33.134Z,37.13
2022-10-26T03:33:59.997Z,29.42
2022-10-26T03:36:26.562Z,28.80
2022-10-26T03:38:53.365Z,29.27
2022-10-26T03:41:19.978Z,30.05
2022-10-26T03:43:46.563Z,28.90
2022-10-26T03:46:13.134Z,28.83
2022-10-26T03:48:39.788Z,29.30
2022-10-26T03:51:06.490Z,30.90
2022-10-26T03:53:33.261Z,30.52
2022-10-26T03:55:59.932Z,30.75
2022-10-26T04:00:58.038Z,30.70
2022-10-26T04:03:24.642Z,32.38
2022-10-26T04:05:51.527Z,30.60
2022-10-26T04:08:18.264Z,29.48
2022-10-26T04:10:47.436Z,39.83
2022-10-26T04:13:14.462Z,27.38
2022-10-26T04:15:41.380Z,32.75
2022-10-26T04:18:12.927Z,36.83
2022-10-26T04:20:44.459Z,29.77
2022-10-26T04:23:15.812Z,32.58
2022-10-26T04:25:44.884Z,39.20
2022-10-26T04:28:13.916Z,48.35
2022-10-26T04:30:41.114Z,27.73
2022-10-26T04:33:11.270Z,26.98
2022-10-26T04:35:37.890Z,38.67
2022-10-26T04:38:07.805Z,27.92
2022-10-26T04:40:35.521Z,27.27
2022-10-26T04:43:02.421Z,30.85
2022-10-26T04:45:30.831Z,28.05
2022-10-26T04:48:12.179Z,29.15
2022-10-26T04:50:40.418Z,27.08
2022-10-26T04:53:10.558Z,27.45
2022-10-26T04:55:37.259Z,28.65
2022-10-26T04:58:04.880Z,32.50
2022-10-26T05:00:35.406Z,35.90
2022-10-26T05:03:05.542Z,28.08
2022-10-26T05:05:36.981Z,29.38
2022-10-26T05:08:04.832Z,34.45
2022-10-26T05:10:34.589Z,36.70
2022-10-26T05:13:02.299Z,43.33
2022-10-26T05:15:30.461Z,30.25
2022-10-26T05:18:05.635Z,28.30
2022-10-26T05:20:36.223Z,30.85
2022-10-26T05:23:09.474Z,30.70
2022-10-26T05:25:38.448Z,33.70
2022-10-26T05:28:13.191Z,29.15
2022-10-26T05:30:45.703Z,31.45
2022-10-26T05:33:14.658Z,30.98
2022-10-26T05:35:41.684Z,46.33
2022-10-26T05:38:17.705Z,51.35
2022-10-26T05:40:54.454Z,96.45
2022-10-26T05:43:25.292Z,30.00
2022-10-26T05:45:52.342Z,31.45
2022-10-26T05:48:19.974Z,30.33
2022-10-26T05:50:46.802Z,30.33
2022-10-26T05:53:13.660Z,32.08
2022-10-26T05:55:41.289Z,34.42
2022-10-26T05:58:15.463Z,31.73
2022-10-26T06:01:11.500Z,31.95
2022-10-26T06:04:25.005Z,44.83
2022-10-26T06:06:55.252Z,31.00
2022-10-26T06:09:22.613Z,39.40
2022-10-26T06:11:52.838Z,38.08
2022-10-26T06:14:20.058Z,36.00
2022-10-26T06:17:49.120Z,38.67
2022-10-26T06:20:44.538Z,57.13
2022-10-26T06:23:43.796Z,47.00
2022-10-26T06:26:42.477Z,62.78
2022-10-26T06:29:58.090Z,51.35
2022-10-26T06:35:36.549Z,32.88
2022-10-26T06:38:11.735Z,28.65
2022-10-26T06:40:43.523Z,31.23
2022-10-26T06:43:26.072Z,39.45
2022-10-26T06:46:52.725Z,30.42
2022-10-26T06:49:36.788Z,39.22
2022-10-26T06:52:29.730Z,30.20
2022-10-26T06:54:57.409Z,33.78
2022-10-26T06:57:34.108Z,32.28
2022-10-26T07:00:16.606Z,29.27
2022-10-26T07:02:43.261Z,35.15
2022-10-26T07:05:12.875Z,37.45
2022-10-26T07:07:47.353Z,33.72
2022-10-26T07:10:16.146Z,33.13
2022-10-26T07:12:42.875Z,30.60
2022-10-26T07:15:10.282Z,30.95
2022-10-26T07:17:49.975Z,32.13
2022-10-26T07:20:21.277Z,30.60
2022-10-26T07:22:57.173Z,29.58
2022-10-26T07:25:26.048Z,29.40
2022-10-26T07:27:58.926Z,29.75
2022-10-26T07:30:28.737Z,30.77
2022-10-26T07:33:14.721Z,28.88
2022-10-26T07:35:41.775Z,27.85
2022-10-26T07:38:09.603Z,25.45
2022-10-26T07:40:38.269Z,25.67
2022-10-26T07:43:05.451Z,24.30
2022-10-26T07:45:36.647Z,22.30
2022-10-26T07:48:03.485Z,21.00
2022-10-26T07:50:32.689Z,19.48
2022-10-26T07:52:59.829Z,17.92
2022-10-26T07:55:27.570Z,16.85
2022-10-26T07:57:56.578Z,14.65
2022-10-26T08:00:23.590Z,14.05
2022-10-26T08:02:50.274Z,12.80
2022-10-26T08:05:17.893Z,12.32
2022-10-26T08:07:46.193Z,12.82
2022-10-26T08:10:15.783Z,13.02
2022-10-26T08:12:43.685Z,12.70
2022-10-26T08:15:11.554Z,11.43
2022-10-26T08:17:38.407Z,12.50
2022-10-26T08:20:06.108Z,11.50
2022-10-26T08:22:32.719Z,11.90
2022-10-26T08:24:59.370Z,12.90
2022-10-26T08:27:26.104Z,12.55
2022-10-26T08:29:54.149Z,11.32
2022-10-26T08:32:20.800Z,11.23
2022-10-26T08:34:47.518Z,10.07
2022-10-26T08:37:16.204Z,11.85
2022-10-26T08:39:43.126Z,10.60
2022-10-26T08:42:30.386Z,10.32
2022-10-26T08:45:10.659Z,10.13
2022-10-26T08:47:49.843Z,10.63
2022-10-26T08:50:42.074Z,10.05
2022-10-26T08:53:39.567Z,9.98
2022-10-26T08:56:21.174Z,11.63
2022-10-26T08:59:12.646Z,10.85
2022-10-26T09:01:39.347Z,9.80
2022-10-26T09:04:15.763Z,10.00
2022-10-26T09:07:22.470Z,9.00
2022-10-26T09:10:20.689Z,9.30
2022-10-26T09:13:24.742Z,10.27
2022-10-26T09:16:10.670Z,8.65
2022-10-26T09:19:37.614Z,9.30
2022-10-26T09:22:33.123Z,8.63
2022-10-26T09:25:19.797Z,9.63
2022-10-26T09:27:55.732Z,8.57
2022-10-26T09:30:23.993Z,9.50
2022-10-26T09:33:33.866Z,8.02
2022-10-26T09:36:13.101Z,8.32
2022-10-26T09:38:58.149Z,9.10
2022-10-26T09:41:43.591Z,8.05
2022-10-26T09:44:44.555Z,8.65
2022-10-26T09:47:42.311Z,7.90
2022-10-26T09:50:35.701Z,8.55
2022-10-26T09:53:04.012Z,9.15
2022-10-26T09:55:39.203Z,8.75
2022-10-26T09:58:20.314Z,8.75
2022-10-26T10:00:47.693Z,9.70
2022-10-26T10:03:34.037Z,11.00
2022-10-26T10:06:20.339Z,9.23
2022-10-26T10:09:21.068Z,9.65
2022-10-26T10:12:03.727Z,8.35
2022-10-26T10:14:59.372Z,8.98
2022-10-26T10:17:27.062Z,9.00
2022-10-26T10:19:54.057Z,7.65
2022-10-26T10:22:26.388Z,7.93
2022-10-26T10:24:58.270Z,7.95
2022-10-26T10:27:28.207Z,8.15
2022-10-26T10:30:03.118Z,7.72
2022-10-26T10:32:38.730Z,6.90
2022-10-26T10:35:32.658Z,7.82
2022-10-26T10:38:00.151Z,8.00
2022-10-26T10:40:31.382Z,7.78
2022-10-26T10:43:16.326Z,7.43
2022-10-26T10:45:54.682Z,6.88
2022-10-26T10:48:29.144Z,6.82
2022-10-26T10:51:02.744Z,7.15
2022-10-26T10:53:49.195Z,7.15
2022-10-26T10:56:54.182Z,6.13
2022-10-26T11:00:05.695Z,5.22
2022-10-26T11:03:02.786Z,6.05
2022-10-26T11:06:06.809Z,5.20
2022-10-26T11:08:39.819Z,5.53
2022-10-26T11:11:21.553Z,4.88
2022-10-26T11:14:05.619Z,5.68
2022-10-26T11:16:50.332Z,5.13
2022-10-26T11:19:29.183Z,5.28
2022-10-26T11:21:56.710Z,4.45
2022-10-26T11:24:48.710Z,3.90
2022-10-26T11:27:26.193Z,4.50
2022-10-26T11:30:25.690Z,4.40
2022-10-26T11:33:44.710Z,4.20
2022-10-26T11:36:26.205Z,4.00
2022-10-26T11:39:29.273Z,4.40
2022-10-26T11:42:26.322Z,3.65
2022-10-26T11:45:32.935Z,3.75
2022-10-26T11:48:31.739Z,4.45
2022-10-26T11:51:00.946Z,4.32
2022-10-26T11:53:45.671Z,4.25
2022-10-26T11:56:40.419Z,3.88
2022-10-26T11:59:20.674Z,4.30
2022-10-26T12:02:02.363Z,3.92
2022-10-26T12:04:37.261Z,4.20
2022-10-26T12:07:20.651Z,3.80
2022-10-26T12:09:47.351Z,3.40
2022-10-26T12:12:38.878Z,3.80
2022-10-26T12:15:40.302Z,3.80
2022-10-26T12:18:56.086Z,3.42
2022-10-26T12:21:30.830Z,3.85
2022-10-26T12:24:22.935Z,3.67
2022-10-26T12:27:26.597Z,4.50
2022-10-26T12:30:18.984Z,4.55
2022-10-26T12:32:46.659Z,3.53
2022-10-26T12:35:45.261Z,3.85
2022-10-26T12:38:24.057Z,4.03
2022-10-26T12:41:09.795Z,3.67
2022-10-26T12:43:41.429Z,3.78
2022-10-26T12:46:14.019Z,3.78
2022-10-26T12:48:49.795Z,3.35
2022-10-26T12:51:22.295Z,3.70
2022-10-26T12:54:48.016Z,2.88
2022-10-26T12:57:49.039Z,3.00
2022-10-26T13:00:25.924Z,3.28
2022-10-26T13:03:34.083Z,3.15
2022-10-26T13:06:40.203Z,3.15
2022-10-26T13:09:33.057Z,2.72
2022-10-26T13:12:06.028Z,3.42
2022-10-26T13:15:03.094Z,3.53
2022-10-26T13:20:06.474Z,3.67
2022-10-26T13:22:33.771Z,3.33
2022-10-26T13:25:05.825Z,3.67
2022-10-26T13:27:35.434Z,3.33
2022-10-26T13:30:05.167Z,3.38
2022-10-26T13:32:38.938Z,3.45
2022-10-26T13:35:13.870Z,3.75
2022-10-26T13:37:49.142Z,3.58
2022-10-26T13:40:22.951Z,3.83
2022-10-26T13:43:06.294Z,2.92
2022-10-26T13:46:02.705Z,2.88
2022-10-26T13:48:40.528Z,3.08
2022-10-26T13:51:24.184Z,3.20
2022-10-26T13:54:21.089Z,3.30
2022-10-26T13:57:23.833Z,2.95
2022-10-26T13:59:53.085Z,3.10
2022-10-26T14:02:32.341Z,2.97
2022-10-26T14:05:06.482Z,3.80
2022-10-26T14:10:44.732Z,3.10
2022-10-26T14:13:24.401Z,4.10
2022-10-26T14:15:52.898Z,3.88
2022-10-26T14:18:35.354Z,3.90
2022-10-26T14:21:07.746Z,3.50
2022-10-26T14:24:07.596Z,3.80
2022-10-26T14:26:41.884Z,3.88
2022-10-26T14:29:26.106Z,3.65
2022-10-26T14:31:57.193Z,4.10
2022-10-26T14:34:24.971Z,3.72
2022-10-26T14:37:07.990Z,3.65
2022-10-26T14:39:47.748Z,3.42
2022-10-26T14:42:40.597Z,3.20
2022-10-26T14:45:52.100Z,3.67
2022-10-26T14:48:35.473Z,3.72
2022-10-26T14:51:16.678Z,3.22
2022-10-26T14:53:55.200Z,3.92
2022-10-26T14:56:38.008Z,3.40
2022-10-26T14:59:35.337Z,4.00
2022-10-26T15:02:10.963Z,4.10
2022-10-26T15:04:42.842Z,4.00
2022-10-26T15:07:12.369Z,4.35
2022-10-26T15:09:55.965Z,4.70
2022-10-26T15:12:39.540Z,3.30
2022-10-26T15:15:15.732Z,4.20
2022-10-26T15:17:55.452Z,4.55
2022-10-26T15:20:29.469Z,4.65
2022-10-26T15:23:04.012Z,4.28
2022-10-26T15:25:34.943Z,4.50
2022-10-26T15:28:29.116Z,4.57
2022-10-26T15:31:10.704Z,5.07
2022-10-26T15:33:43.061Z,4.82
2022-10-26T15:36:20.630Z,3.97
2022-10-26T15:38:48.790Z,4.30
2022-10-26T15:41:40.215Z,4.40
2022-10-26T15:44:19.262Z,4.32
2022-10-26T15:46:48.939Z,3.97
2022-10-26T15:49:21.087Z,5.13
2022-10-26T15:51:52.221Z,4.20
2022-10-26T15:54:19.001Z,3.78
2022-10-26T15:56:50.859Z,5.07
2022-10-26T15:59:20.024Z,4.28
2022-10-26T16:01:46.918Z,4.20
2022-10-26T16:04:13.896Z,3.35
2022-10-26T16:06:43.248Z,3.63
2022-10-26T16:09:17.723Z,3.95
2022-10-26T16:11:45.554Z,4.35
2022-10-26T16:14:12.900Z,4.13
2022-10-26T16:16:39.898Z,3.92
2022-10-26T16:19:29.719Z,4.03
2022-10-26T16:21:55.881Z,4.20
2022-10-26T16:24:23.815Z,3.90
2022-10-26T16:26:54.310Z,3.85
2022-10-26T16:29:21.247Z,3.95
2022-10-26T16:31:48.285Z,3.95
2022-10-26T16:34:17.031Z,4.20
2022-10-26T16:36:46.609Z,3.72
2022-10-26T16:39:13.433Z,3.55
2022-10-26T16:41:43.234Z,4.40
2022-10-26T16:44:13.623Z,4.30
2022-10-26T16:46:40.289Z,4.05
2022-10-26T16:49:09.658Z,4.13
2022-10-26T16:51:40.778Z,3.90
2022-10-26T16:54:10.024Z,4.32
2022-10-26T16:56:36.735Z,5.47
2022-10-26T16:59:05.934Z,4.55
2022-10-26T17:01:36.027Z,4.00
2022-10-26T17:06:33.374Z,4.75
2022-10-26T17:09:02.884Z,4.10
2022-10-26T17:11:29.658Z,4.53
2022-10-26T17:13:56.484Z,4.38
2022-10-26T17:16:25.806Z,3.70
2022-10-26T17:18:54.250Z,4.47
2022-10-26T17:21:35.592Z,3.90
2022-10-26T17:24:03.472Z,4.97
2022-10-26T17:26:33.098Z,4.28
2022-10-26T17:29:03.124Z,3.88
2022-10-26T17:31:33.533Z,4.32
2022-10-26T17:34:00.370Z,4.78
2022-10-26T17:36:27.467Z,4.07
2022-10-26T17:38:55.803Z,5.45
2022-10-26T17:41:24.444Z,3.45
2022-10-26T17:43:53.026Z,5.03
2022-10-26T17:46:24.686Z,4.50
2022-10-26T17:49:03.501Z,5.10
2022-10-26T17:51:33.932Z,5.47
2022-10-26T17:54:00.847Z,4.53
2022-10-26T17:56:34.407Z,5.28
2022-10-26T17:59:10.932Z,5.03
2022-10-26T18:01:37.682Z,4.90
2022-10-26T18:04:04.673Z,5.45
2022-10-26T18:06:34.458Z,6.50
2022-10-26T18:09:03.572Z,5.50
2022-10-26T18:11:36.155Z,5.85
2022-10-26T18:14:06.010Z,5.22
2022-10-26T18:16:38.401Z,6.10
2022-10-26T18:19:05.400Z,5.45
2022-10-26T18:21:39.318Z,6.78
2022-10-26T18:24:08.753Z,6.07
2022-10-26T18:26:38.166Z,6.35
2022-10-26T18:29:06.524Z,6.07
2022-10-26T18:31:37.441Z,5.93
2022-10-26T18:34:06.876Z,7.72
2022-10-26T18:36:34.009Z,6.03
2022-10-26T18:39:01.212Z,5.95
2022-10-26T18:41:31.587Z,6.63
2022-10-26T18:44:04.187Z,5.90
2022-10-26T18:46:39.277Z,6.10
2022-10-26T18:49:06.319Z,6.30
2022-10-26T18:51:35.081Z,5.60
2022-10-26T18:54:02.699Z,5.88
2022-10-26T18:56:33.182Z,6.32
2022-10-26T18:59:00.838Z,6.22
2022-10-26T19:04:19.014Z,6.35
2022-10-26T19:06:50.015Z,7.10
2022-10-26T19:09:19.307Z,6.43
2022-10-26T19:11:46.314Z,6.60
2022-10-26T19:14:13.733Z,6.25
2022-10-26T19:16:48.276Z,6.82
2022-10-26T19:19:25.139Z,6.57
2022-10-26T19:21:54.576Z,6.70
2022-10-26T19:24:25.014Z,6.10
2022-10-26T19:26:53.990Z,5.45
2022-10-26T19:29:22.143Z,5.90
2022-10-26T19:31:53.123Z,5.55
2022-10-26T19:34:21.264Z,6.78
2022-10-26T19:36:48.399Z,6.07
2022-10-26T19:39:18.404Z,6.00
2022-10-26T19:41:55.060Z,5.50
2022-10-26T19:44:25.396Z,5.30
2022-10-26T19:46:52.425Z,4.97
2022-10-26T19:49:20.035Z,7.30
2022-10-26T19:51:49.296Z,5.65
2022-10-26T19:54:20.163Z,5.78
2022-10-26T19:56:48.542Z,5.90
2022-10-26T19:59:16.583Z,5.90
2022-10-26T20:01:43.669Z,5.65
2022-10-26T20:04:10.595Z,6.10
2022-10-26T20:06:39.960Z,5.60
2022-10-26T20:09:06.885Z,6.45
2022-10-26T20:11:36.395Z,6.18
2022-10-26T20:14:09.053Z,5.80
2022-10-26T20:16:55.436Z,6.45
2022-10-26T20:19:22.742Z,6.53
2022-10-26T20:21:53.883Z,5.95
2022-10-26T20:24:26.004Z,5.60
2022-10-26T20:26:52.692Z,6.25
2022-10-26T20:29:22.247Z,6.32
2022-10-26T20:31:55.831Z,6.20
2022-10-26T20:34:34.993Z,6.47
2022-10-26T20:37:01.767Z,6.35
2022-10-26T20:39:29.199Z,6.07
2022-10-26T20:41:56.526Z,6.80
2022-10-26T20:44:46.186Z,7.03
2022-10-26T20:47:13.374Z,6.03
2022-10-26T20:49:40.502Z,7.00
2022-10-26T20:52:30.762Z,6.85
2022-10-26T20:55:36.785Z,7.03
2022-10-26T20:58:12.992Z,7.65
2022-10-26T21:00:55.027Z,6.75
2022-10-26T21:03:21.740Z,7.32
2022-10-26T21:05:48.964Z,7.45
2022-10-26T21:08:16.228Z,8.85
2022-10-26T21:10:42.930Z,7.40
2022-10-26T21:13:09.683Z,7.28
2022-10-26T21:15:36.996Z,7.88
2022-10-26T21:18:04.434Z,9.68
2022-10-26T21:20:34.357Z,9.25
2022-10-26T21:23:02.837Z,8.40
2022-10-26T21:25:29.721Z,7.15
2022-10-26T21:27:58.309Z,8.45
2022-10-26T21:30:26.375Z,7.95
2022-10-26T21:32:54.327Z,7.80
2022-10-26T21:35:22.476Z,8.48
2022-10-26T21:37:49.551Z,8.88
2022-10-26T21:40:23.690Z,8.18
2022-10-26T21:42:52.282Z,8.55
2022-10-26T21:45:21.113Z,8.45
2022-10-26T21:47:52.918Z,9.40
2022-10-26T21:50:20.441Z,10.00
2022-10-26T21:52:47.491Z,9.10
2022-10-26T21:55:15.467Z,9.73
2022-10-26T21:57:42.165Z,8.85
2022-10-26T22:00:10.268Z,8.68
2022-10-26T22:02:36.918Z,8.48
2022-10-26T22:05:11.081Z,8.80
2022-10-26T22:10:10.755Z,9.07
2022-10-26T22:12:37.990Z,10.57
2022-10-26T22:15:05.874Z,9.38
2022-10-26T22:17:40.413Z,9.70
2022-10-26T22:20:18.701Z,10.32
2022-10-26T22:22:45.339Z,9.50
2022-10-26T22:25:11.976Z,10.43
2022-10-26T22:27:38.593Z,9.75
2022-10-26T22:30:06.492Z,9.55
2022-10-26T22:32:33.174Z,9.82
2022-10-26T22:35:10.800Z,9.88
2022-10-26T22:37:44.795Z,10.45
2022-10-26T22:40:12.242Z,9.50
2022-10-26T22:42:38.912Z,11.60
2022-10-26T22:45:06.570Z,9.98
2022-10-26T22:47:33.168Z,10.23
2022-10-26T22:49:59.796Z,10.02
2022-10-26T22:52:26.660Z,11.45
2022-10-26T22:54:53.318Z,12.63
2022-10-26T22:57:20.008Z,11.93
2022-10-26T22:59:46.760Z,11.57
2022-10-26T23:02:13.666Z,12.93
2022-10-26T23:04:40.457Z,11.85
2022-10-26T23:07:07.095Z,12.88
2022-10-26T23:09:33.742Z,12.70
2022-10-26T23:12:00.431Z,13.40
2022-10-26T23:14:27.245Z,12.77
2022-10-26T23:16:53.952Z,13.27
2022-10-26T23:19:20.586Z,13.43
2022-10-26T23:21:47.223Z,14.07
2022-10-26T23:24:13.873Z,13.32
2022-10-26T23:26:40.531Z,14.02
2022-10-26T23:29:07.187Z,14.40
2022-10-26T23:31:33.766Z,12.27
2022-10-26T23:34:00.440Z,13.10
2022-10-26T23:36:26.994Z,14.75
2022-10-26T23:38:53.900Z,14.57
2022-10-26T23:41:20.686Z,15.80
2022-10-26T23:43:47.340Z,14.52
2022-10-26T23:46:14.166Z,16.60
2022-10-26T23:48:40.997Z,17.40
2022-10-26T23:51:07.708Z,17.42
2022-10-26T23:53:34.602Z,17.25
2022-10-26T23:56:01.805Z,17.52
2022-10-26T23:58:28.540Z,19.05
